sensor_id;sensor_type;location;lat;lon;timestamp;temperature;humidity
23629;DHT22;11991;57.150;-2.134;2022-12-10T00:01:37;2.20;99.90
23629;DHT22;11991;57.150;-2.134;2022-12-10T00:04:04;2.20;99.90
23629;DHT22;11991;57.150;-2.134;2022-12-10T00:06:34;2.20;99.90
23629;DHT22;11991;57.150;-2.134;2022-12-10T00:09:03;2.20;99.90
23629;DHT22;11991;57.150;-2.134;2022-12-10T00:11:31;2.20;99.90
23629;DHT22;11991;57.150;-2.134;2022-12-10T00:13:59;2.30;99.90
23629;DHT22;11991;57.150;-2.134;2022-12-10T00:16:28;2.30;99.90
23629;DHT22;11991;57.150;-2.134;2022-12-10T00:18:57;2.30;99.90
23629;DHT22;11991;57.150;-2.134;2022-12-10T00:21:27;2.30;99.90
23629;DHT22;11991;57.150;-2.134;2022-12-10T00:23:56;2.20;99.90
23629;DHT22;11991;57.150;-2.134;2022-12-10T00:26:26;2.20;99.90
23629;DHT22;11991;57.150;-2.134;2022-12-10T00:28:54;2.20;99.90
23629;DHT22;11991;57.150;-2.134;2022-12-10T00:31:25;2.20;99.90
23629;DHT22;11991;57.150;-2.134;2022-12-10T00:33:55;2.10;99.90
23629;DHT22;11991;57.150;-2.134;2022-12-10T00:36:29;2.10;99.90
23629;DHT22;11991;57.150;-2.134;2022-12-10T00:38:58;2.20;99.90
23629;DHT22;11991;57.150;-2.134;2022-12-10T00:41:28;2.20;99.90
23629;DHT22;11991;57.150;-2.134;2022-12-10T00:43:55;2.20;99.90
23629;DHT22;11991;57.150;-2.134;2022-12-10T00:46:22;2.20;99.90
23629;DHT22;11991;57.150;-2.134;2022-12-10T00:48:50;2.20;99.90
23629;DHT22;11991;57.150;-2.134;2022-12-10T00:51:23;2.20;99.90
23629;DHT22;11991;57.150;-2.134;2022-12-10T00:53:54;2.30;99.90
23629;DHT22;11991;57.150;-2.134;2022-12-10T00:56:26;2.30;99.90
23629;DHT22;11991;57.150;-2.134;2022-12-10T00:58:54;2.30;99.90
23629;DHT22;11991;57.150;-2.134;2022-12-10T01:01:36;2.30;99.90
23629;DHT22;11991;57.150;-2.134;2022-12-10T01:04:11;2.40;99.90
23629;DHT22;11991;57.150;-2.134;2022-12-10T01:06:51;2.40;99.90
23629;DHT22;11991;57.150;-2.134;2022-12-10T01:09:25;2.40;99.90
23629;DHT22;11991;57.150;-2.134;2022-12-10T01:11:54;2.50;99.90
23629;DHT22;11991;57.150;-2.134;2022-12-10T01:14:25;2.50;99.90
23629;DHT22;11991;57.150;-2.134;2022-12-10T01:16:58;2.40;99.90
23629;DHT22;11991;57.150;-2.134;2022-12-10T01:19:26;2.50;99.90
23629;DHT22;11991;57.150;-2.134;2022-12-10T01:21:54;2.50;99.90
23629;DHT22;11991;57.150;-2.134;2022-12-10T01:24:24;2.40;99.90
23629;DHT22;11991;57.150;-2.134;2022-12-10T01:26:52;2.40;99.90
23629;DHT22;11991;57.150;-2.134;2022-12-10T01:29:20;2.30;99.90
23629;DHT22;11991;57.150;-2.134;2022-12-10T01:31:51;2.30;99.90
23629;DHT22;11991;57.150;-2.134;2022-12-10T01:34:19;2.20;99.90
23629;DHT22;11991;57.150;-2.134;2022-12-10T01:36:51;2.20;99.90
23629;DHT22;11991;57.150;-2.134;2022-12-10T01:39:20;2.20;99.90
23629;DHT22;11991;57.150;-2.134;2022-12-10T01:41:51;2.10;99.90
23629;DHT22;11991;57.150;-2.134;2022-12-10T01:46:52;2.10;99.90
23629;DHT22;11991;57.150;-2.134;2022-12-10T01:49:25;2.10;99.90
23629;DHT22;11991;57.150;-2.134;2022-12-10T01:51:55;2.10;99.90
23629;DHT22;11991;57.150;-2.134;2022-12-10T01:54:26;2.10;99.90
23629;DHT22;11991;57.150;-2.134;2022-12-10T01:57:31;2.10;99.90
23629;DHT22;11991;57.150;-2.134;2022-12-10T02:00:04;2.10;99.90
23629;DHT22;11991;57.150;-2.134;2022-12-10T02:02:56;2.20;99.90
23629;DHT22;11991;57.150;-2.134;2022-12-10T02:08:26;2.20;99.90
23629;DHT22;11991;57.150;-2.134;2022-12-10T02:11:13;2.20;99.90
23629;DHT22;11991;57.150;-2.134;2022-12-10T02:13:53;2.20;99.90
23629;DHT22;11991;57.150;-2.134;2022-12-10T02:16:36;2.20;99.90
23629;DHT22;11991;57.150;-2.134;2022-12-10T02:22:05;2.20;99.90
23629;DHT22;11991;57.150;-2.134;2022-12-10T02:24:35;2.20;99.90
23629;DHT22;11991;57.150;-2.134;2022-12-10T02:27:19;2.20;99.90
23629;DHT22;11991;57.150;-2.134;2022-12-10T02:29:48;2.20;99.90
23629;DHT22;11991;57.150;-2.134;2022-12-10T02:32:19;2.30;99.90
23629;DHT22;11991;57.150;-2.134;2022-12-10T02:34:54;2.30;99.90
23629;DHT22;11991;57.150;-2.134;2022-12-10T02:37:39;2.30;99.90
23629;DHT22;11991;57.150;-2.134;2022-12-10T02:40:15;2.30;99.90
23629;DHT22;11991;57.150;-2.134;2022-12-10T02:42:50;2.30;99.90
23629;DHT22;11991;57.150;-2.134;2022-12-10T02:45:21;2.40;99.90
23629;DHT22;11991;57.150;-2.134;2022-12-10T02:47:51;2.40;99.90
23629;DHT22;11991;57.150;-2.134;2022-12-10T02:50:22;2.40;99.90
23629;DHT22;11991;57.150;-2.134;2022-12-10T02:52:50;2.40;99.90
23629;DHT22;11991;57.150;-2.134;2022-12-10T02:55:18;2.30;99.90
23629;DHT22;11991;57.150;-2.134;2022-12-10T03:00:51;2.30;99.90
23629;DHT22;11991;57.150;-2.134;2022-12-10T03:03:43;2.30;99.90
23629;DHT22;11991;57.150;-2.134;2022-12-10T03:06:32;2.40;99.90
23629;DHT22;11991;57.150;-2.134;2022-12-10T03:09:12;2.40;99.90
23629;DHT22;11991;57.150;-2.134;2022-12-10T03:11:45;2.40;99.90
23629;DHT22;11991;57.150;-2.134;2022-12-10T03:14:24;2.40;99.90
23629;DHT22;11991;57.150;-2.134;2022-12-10T03:17:00;2.40;99.90
23629;DHT22;11991;57.150;-2.134;2022-12-10T03:19:42;2.50;99.90
23629;DHT22;11991;57.150;-2.134;2022-12-10T03:22:12;2.50;99.90
23629;DHT22;11991;57.150;-2.134;2022-12-10T03:24:40;2.50;99.90
23629;DHT22;11991;57.150;-2.134;2022-12-10T03:27:11;2.50;99.90
23629;DHT22;11991;57.150;-2.134;2022-12-10T03:29:48;2.60;99.90
23629;DHT22;11991;57.150;-2.134;2022-12-10T03:32:18;2.60;99.90
23629;DHT22;11991;57.150;-2.134;2022-12-10T03:34:47;2.60;99.90
23629;DHT22;11991;57.150;-2.134;2022-12-10T03:37:15;2.60;99.90
23629;DHT22;11991;57.150;-2.134;2022-12-10T03:39:42;2.60;99.90
23629;DHT22;11991;57.150;-2.134;2022-12-10T03:42:10;2.60;99.90
23629;DHT22;11991;57.150;-2.134;2022-12-10T03:44:38;2.60;99.90
23629;DHT22;11991;57.150;-2.134;2022-12-10T03:47:10;2.60;99.90
23629;DHT22;11991;57.150;-2.134;2022-12-10T03:49:38;2.60;99.90
23629;DHT22;11991;57.150;-2.134;2022-12-10T03:52:05;2.60;99.90
23629;DHT22;11991;57.150;-2.134;2022-12-10T03:54:33;2.50;99.90
23629;DHT22;11991;57.150;-2.134;2022-12-10T03:57:00;2.50;99.90
23629;DHT22;11991;57.150;-2.134;2022-12-10T03:59:27;2.50;99.90
23629;DHT22;11991;57.150;-2.134;2022-12-10T04:01:57;2.50;99.90
23629;DHT22;11991;57.150;-2.134;2022-12-10T04:04:24;2.50;99.90
23629;DHT22;11991;57.150;-2.134;2022-12-10T04:06:51;2.40;99.90
23629;DHT22;11991;57.150;-2.134;2022-12-10T04:09:19;2.40;99.90
23629;DHT22;11991;57.150;-2.134;2022-12-10T04:11:46;2.40;99.90
23629;DHT22;11991;57.150;-2.134;2022-12-10T04:14:14;2.40;99.90
23629;DHT22;11991;57.150;-2.134;2022-12-10T04:17:00;2.40;99.90
23629;DHT22;11991;57.150;-2.134;2022-12-10T04:19:27;2.30;99.90
23629;DHT22;11991;57.150;-2.134;2022-12-10T04:21:54;2.30;99.90
23629;DHT22;11991;57.150;-2.134;2022-12-10T04:24:40;2.30;99.90
23629;DHT22;11991;57.150;-2.134;2022-12-10T04:27:32;2.30;99.90
23629;DHT22;11991;57.150;-2.134;2022-12-10T04:30:00;2.30;99.90
23629;DHT22;11991;57.150;-2.134;2022-12-10T04:32:28;2.30;99.90
23629;DHT22;11991;57.150;-2.134;2022-12-10T04:34:56;2.40;99.90
23629;DHT22;11991;57.150;-2.134;2022-12-10T04:37:23;2.40;99.90
23629;DHT22;11991;57.150;-2.134;2022-12-10T04:39:51;2.40;99.90
23629;DHT22;11991;57.150;-2.134;2022-12-10T04:42:19;2.50;99.90
23629;DHT22;11991;57.150;-2.134;2022-12-10T04:44:46;2.50;99.90
23629;DHT22;11991;57.150;-2.134;2022-12-10T04:47:14;2.50;99.90
23629;DHT22;11991;57.150;-2.134;2022-12-10T04:49:41;2.60;99.90
23629;DHT22;11991;57.150;-2.134;2022-12-10T04:52:12;2.60;99.90
23629;DHT22;11991;57.150;-2.134;2022-12-10T04:54:41;2.60;99.90
23629;DHT22;11991;57.150;-2.134;2022-12-10T04:57:08;2.60;99.90
23629;DHT22;11991;57.150;-2.134;2022-12-10T04:59:36;2.70;99.90
23629;DHT22;11991;57.150;-2.134;2022-12-10T05:02:04;2.70;99.90
23629;DHT22;11991;57.150;-2.134;2022-12-10T05:04:32;2.70;99.90
23629;DHT22;11991;57.150;-2.134;2022-12-10T05:07:00;2.70;99.90
23629;DHT22;11991;57.150;-2.134;2022-12-10T05:09:27;2.80;99.90
23629;DHT22;11991;57.150;-2.134;2022-12-10T05:11:55;2.80;99.90
23629;DHT22;11991;57.150;-2.134;2022-12-10T05:14:22;2.90;99.90
23629;DHT22;11991;57.150;-2.134;2022-12-10T05:16:50;2.90;99.90
23629;DHT22;11991;57.150;-2.134;2022-12-10T05:19:19;2.90;99.90
23629;DHT22;11991;57.150;-2.134;2022-12-10T05:21:46;2.90;99.90
23629;DHT22;11991;57.150;-2.134;2022-12-10T05:24:33;3.00;99.90
23629;DHT22;11991;57.150;-2.134;2022-12-10T05:27:00;3.10;99.90
23629;DHT22;11991;57.150;-2.134;2022-12-10T05:29:28;3.20;99.90
23629;DHT22;11991;57.150;-2.134;2022-12-10T05:31:55;3.20;99.90
23629;DHT22;11991;57.150;-2.134;2022-12-10T05:34:22;3.30;99.90
23629;DHT22;11991;57.150;-2.134;2022-12-10T05:36:52;3.30;99.90
23629;DHT22;11991;57.150;-2.134;2022-12-10T05:39:20;3.30;99.90
23629;DHT22;11991;57.150;-2.134;2022-12-10T05:41:47;3.40;99.90
23629;DHT22;11991;57.150;-2.134;2022-12-10T05:44:14;3.40;99.90
23629;DHT22;11991;57.150;-2.134;2022-12-10T05:46:42;3.50;99.90
23629;DHT22;11991;57.150;-2.134;2022-12-10T05:49:09;3.50;99.90
23629;DHT22;11991;57.150;-2.134;2022-12-10T05:51:38;3.60;99.90
23629;DHT22;11991;57.150;-2.134;2022-12-10T05:54:06;3.60;99.90
23629;DHT22;11991;57.150;-2.134;2022-12-10T05:56:35;3.60;99.90
23629;DHT22;11991;57.150;-2.134;2022-12-10T05:59:04;3.60;99.90
23629;DHT22;11991;57.150;-2.134;2022-12-10T06:01:34;3.70;99.90
23629;DHT22;11991;57.150;-2.134;2022-12-10T06:04:04;3.70;99.90
23629;DHT22;11991;57.150;-2.134;2022-12-10T06:06:34;3.70;99.90
23629;DHT22;11991;57.150;-2.134;2022-12-10T06:09:03;3.80;99.90
23629;DHT22;11991;57.150;-2.134;2022-12-10T06:11:31;3.80;99.90
23629;DHT22;11991;57.150;-2.134;2022-12-10T06:13:58;3.80;99.90
23629;DHT22;11991;57.150;-2.134;2022-12-10T06:16:27;3.80;99.90
23629;DHT22;11991;57.150;-2.134;2022-12-10T06:18:55;3.70;99.90
23629;DHT22;11991;57.150;-2.134;2022-12-10T06:21:23;3.70;99.90
23629;DHT22;11991;57.150;-2.134;2022-12-10T06:23:51;3.70;99.90
23629;DHT22;11991;57.150;-2.134;2022-12-10T06:26:25;3.70;99.90
23629;DHT22;11991;57.150;-2.134;2022-12-10T06:28:53;3.60;99.90
23629;DHT22;11991;57.150;-2.134;2022-12-10T06:31:21;3.60;99.90
23629;DHT22;11991;57.150;-2.134;2022-12-10T06:33:49;3.60;99.90
23629;DHT22;11991;57.150;-2.134;2022-12-10T06:36:18;3.50;99.90
23629;DHT22;11991;57.150;-2.134;2022-12-10T06:38:46;3.50;99.90
23629;DHT22;11991;57.150;-2.134;2022-12-10T06:41:16;3.50;99.90
23629;DHT22;11991;57.150;-2.134;2022-12-10T06:43:44;3.40;99.90
23629;DHT22;11991;57.150;-2.134;2022-12-10T06:46:14;3.50;99.90
23629;DHT22;11991;57.150;-2.134;2022-12-10T06:48:42;3.50;99.90
23629;DHT22;11991;57.150;-2.134;2022-12-10T06:51:11;3.50;99.90
23629;DHT22;11991;57.150;-2.134;2022-12-10T06:53:40;3.50;99.90
23629;DHT22;11991;57.150;-2.134;2022-12-10T06:56:09;3.60;99.90
23629;DHT22;11991;57.150;-2.134;2022-12-10T06:58:38;3.60;99.90
23629;DHT22;11991;57.150;-2.134;2022-12-10T07:01:13;3.60;99.90
23629;DHT22;11991;57.150;-2.134;2022-12-10T07:03:41;3.70;99.90
23629;DHT22;11991;57.150;-2.134;2022-12-10T07:06:10;3.70;99.90
23629;DHT22;11991;57.150;-2.134;2022-12-10T07:08:38;3.70;99.90
23629;DHT22;11991;57.150;-2.134;2022-12-10T07:11:13;3.70;99.90
23629;DHT22;11991;57.150;-2.134;2022-12-10T07:13:41;3.70;99.90
23629;DHT22;11991;57.150;-2.134;2022-12-10T07:16:20;3.70;99.90
23629;DHT22;11991;57.150;-2.134;2022-12-10T07:18:49;3.70;99.90
23629;DHT22;11991;57.150;-2.134;2022-12-10T07:21:30;3.80;99.90
23629;DHT22;11991;57.150;-2.134;2022-12-10T07:24:05;3.70;99.90
23629;DHT22;11991;57.150;-2.134;2022-12-10T07:26:35;3.80;99.90
23629;DHT22;11991;57.150;-2.134;2022-12-10T07:29:04;3.70;99.90
23629;DHT22;11991;57.150;-2.134;2022-12-10T07:31:33;3.80;99.90
23629;DHT22;11991;57.150;-2.134;2022-12-10T07:34:00;3.80;99.90
23629;DHT22;11991;57.150;-2.134;2022-12-10T07:36:28;3.80;99.90
23629;DHT22;11991;57.150;-2.134;2022-12-10T07:38:55;3.80;99.90
23629;DHT22;11991;57.150;-2.134;2022-12-10T07:41:23;3.80;99.90
23629;DHT22;11991;57.150;-2.134;2022-12-10T07:43:51;3.80;99.90
23629;DHT22;11991;57.150;-2.134;2022-12-10T07:46:25;3.80;99.90
23629;DHT22;11991;57.150;-2.134;2022-12-10T07:48:53;3.90;99.90
23629;DHT22;11991;57.150;-2.134;2022-12-10T07:51:22;3.90;99.90
23629;DHT22;11991;57.150;-2.134;2022-12-10T07:53:53;3.90;99.90
23629;DHT22;11991;57.150;-2.134;2022-12-10T07:56:22;3.90;99.90
23629;DHT22;11991;57.150;-2.134;2022-12-10T07:58:51;4.00;99.90
23629;DHT22;11991;57.150;-2.134;2022-12-10T08:01:22;4.00;99.90
23629;DHT22;11991;57.150;-2.134;2022-12-10T08:03:50;4.10;99.90
23629;DHT22;11991;57.150;-2.134;2022-12-10T08:06:19;4.10;99.90
23629;DHT22;11991;57.150;-2.134;2022-12-10T08:08:47;4.10;99.90
23629;DHT22;11991;57.150;-2.134;2022-12-10T08:11:16;4.10;99.90
23629;DHT22;11991;57.150;-2.134;2022-12-10T08:13:44;4.10;99.90
23629;DHT22;11991;57.150;-2.134;2022-12-10T08:16:17;4.10;99.90
23629;DHT22;11991;57.150;-2.134;2022-12-10T08:18:46;4.10;99.90
23629;DHT22;11991;57.150;-2.134;2022-12-10T08:21:19;4.10;99.90
23629;DHT22;11991;57.150;-2.134;2022-12-10T08:23:47;4.10;99.90
23629;DHT22;11991;57.150;-2.134;2022-12-10T08:26:17;4.10;99.90
23629;DHT22;11991;57.150;-2.134;2022-12-10T08:28:46;4.20;99.90
23629;DHT22;11991;57.150;-2.134;2022-12-10T08:31:16;4.20;99.90
23629;DHT22;11991;57.150;-2.134;2022-12-10T08:33:43;4.20;99.90
23629;DHT22;11991;57.150;-2.134;2022-12-10T08:36:12;4.20;99.90
23629;DHT22;11991;57.150;-2.134;2022-12-10T08:38:40;4.10;99.90
23629;DHT22;11991;57.150;-2.134;2022-12-10T08:41:10;4.00;99.90
23629;DHT22;11991;57.150;-2.134;2022-12-10T08:43:38;4.00;99.90
23629;DHT22;11991;57.150;-2.134;2022-12-10T08:46:05;3.90;99.90
23629;DHT22;11991;57.150;-2.134;2022-12-10T08:48:34;3.90;99.90
23629;DHT22;11991;57.150;-2.134;2022-12-10T08:51:02;3.80;99.90
23629;DHT22;11991;57.150;-2.134;2022-12-10T08:53:31;3.80;99.90
23629;DHT22;11991;57.150;-2.134;2022-12-10T08:55:58;3.70;99.90
23629;DHT22;11991;57.150;-2.134;2022-12-10T08:58:26;3.70;99.90
23629;DHT22;11991;57.150;-2.134;2022-12-10T09:00:53;3.60;99.90
23629;DHT22;11991;57.150;-2.134;2022-12-10T09:03:20;3.60;99.90
23629;DHT22;11991;57.150;-2.134;2022-12-10T09:05:48;3.60;99.90
23629;DHT22;11991;57.150;-2.134;2022-12-10T09:08:15;3.50;99.90
23629;DHT22;11991;57.150;-2.134;2022-12-10T09:10:43;3.60;99.90
23629;DHT22;11991;57.150;-2.134;2022-12-10T09:13:10;3.60;99.90
23629;DHT22;11991;57.150;-2.134;2022-12-10T09:15:37;3.60;99.90
23629;DHT22;11991;57.150;-2.134;2022-12-10T09:18:04;3.60;99.90
23629;DHT22;11991;57.150;-2.134;2022-12-10T09:20:32;3.60;99.90
23629;DHT22;11991;57.150;-2.134;2022-12-10T09:22:59;3.60;99.90
23629;DHT22;11991;57.150;-2.134;2022-12-10T09:25:26;3.60;99.90
23629;DHT22;11991;57.150;-2.134;2022-12-10T09:27:54;3.60;99.90
23629;DHT22;11991;57.150;-2.134;2022-12-10T09:30:21;3.50;99.90
23629;DHT22;11991;57.150;-2.134;2022-12-10T09:32:48;3.50;99.90
23629;DHT22;11991;57.150;-2.134;2022-12-10T09:35:15;3.40;99.90
23629;DHT22;11991;57.150;-2.134;2022-12-10T09:37:43;3.40;99.90
23629;DHT22;11991;57.150;-2.134;2022-12-10T09:40:17;3.40;99.90
23629;DHT22;11991;57.150;-2.134;2022-12-10T09:43:03;3.30;99.90
23629;DHT22;11991;57.150;-2.134;2022-12-10T09:51:22;3.30;99.90
23629;DHT22;11991;57.150;-2.134;2022-12-10T09:53:52;3.20;99.90
23629;DHT22;11991;57.150;-2.134;2022-12-10T09:56:43;3.30;99.90
23629;DHT22;11991;57.150;-2.134;2022-12-10T09:59:31;3.20;99.90
23629;DHT22;11991;57.150;-2.134;2022-12-10T10:02:22;3.20;99.90
23629;DHT22;11991;57.150;-2.134;2022-12-10T10:04:51;3.20;99.90
23629;DHT22;11991;57.150;-2.134;2022-12-10T10:07:27;3.20;99.90
23629;DHT22;11991;57.150;-2.134;2022-12-10T10:10:02;3.20;99.90
23629;DHT22;11991;57.150;-2.134;2022-12-10T10:12:31;3.20;99.90
23629;DHT22;11991;57.150;-2.134;2022-12-10T10:15:13;3.20;99.90
23629;DHT22;11991;57.150;-2.134;2022-12-10T10:17:42;3.20;99.90
23629;DHT22;11991;57.150;-2.134;2022-12-10T10:20:13;3.20;99.90
23629;DHT22;11991;57.150;-2.134;2022-12-10T10:22:43;3.20;99.90
23629;DHT22;11991;57.150;-2.134;2022-12-10T10:25:15;3.10;99.90
23629;DHT22;11991;57.150;-2.134;2022-12-10T10:27:43;3.00;99.90
23629;DHT22;11991;57.150;-2.134;2022-12-10T10:30:15;2.90;99.90
23629;DHT22;11991;57.150;-2.134;2022-12-10T10:32:49;2.90;99.90
23629;DHT22;11991;57.150;-2.134;2022-12-10T10:35:31;2.70;99.90
23629;DHT22;11991;57.150;-2.134;2022-12-10T10:38:01;2.60;99.90
23629;DHT22;11991;57.150;-2.134;2022-12-10T10:40:33;2.50;99.90
23629;DHT22;11991;57.150;-2.134;2022-12-10T10:43:06;2.50;99.90
23629;DHT22;11991;57.150;-2.134;2022-12-10T10:46:03;2.50;99.90
23629;DHT22;11991;57.150;-2.134;2022-12-10T10:48:29;2.40;99.90
23629;DHT22;11991;57.150;-2.134;2022-12-10T10:51:07;2.40;99.90
23629;DHT22;11991;57.150;-2.134;2022-12-10T10:53:41;2.30;99.90
23629;DHT22;11991;57.150;-2.134;2022-12-10T10:58:55;2.30;99.90
23629;DHT22;11991;57.150;-2.134;2022-12-10T11:01:49;2.30;99.90
23629;DHT22;11991;57.150;-2.134;2022-12-10T11:04:16;2.30;99.90
23629;DHT22;11991;57.150;-2.134;2022-12-10T11:06:44;2.30;99.90
23629;DHT22;11991;57.150;-2.134;2022-12-10T11:09:21;2.30;99.90
23629;DHT22;11991;57.150;-2.134;2022-12-10T11:12:01;2.20;99.90
23629;DHT22;11991;57.150;-2.134;2022-12-10T11:14:38;2.20;99.90
23629;DHT22;11991;57.150;-2.134;2022-12-10T11:17:19;2.20;99.90
23629;DHT22;11991;57.150;-2.134;2022-12-10T11:22:28;2.10;99.90
23629;DHT22;11991;57.150;-2.134;2022-12-10T11:24:57;2.10;99.90
23629;DHT22;11991;57.150;-2.134;2022-12-10T11:30:21;2.20;99.90
23629;DHT22;11991;57.150;-2.134;2022-12-10T11:39:19;2.20;99.90
23629;DHT22;11991;57.150;-2.134;2022-12-10T11:42:07;2.20;99.90
23629;DHT22;11991;57.150;-2.134;2022-12-10T11:51:00;2.30;99.90
23629;DHT22;11991;57.150;-2.134;2022-12-10T11:54:10;2.40;99.90
23629;DHT22;11991;57.150;-2.134;2022-12-10T11:56:47;2.60;99.90
23629;DHT22;11991;57.150;-2.134;2022-12-10T11:59:31;2.70;99.90
23629;DHT22;11991;57.150;-2.134;2022-12-10T12:13:35;3.00;99.90
23629;DHT22;11991;57.150;-2.134;2022-12-10T12:16:19;3.10;99.90
23629;DHT22;11991;57.150;-2.134;2022-12-10T12:22:02;3.30;99.90
23629;DHT22;11991;57.150;-2.134;2022-12-10T12:24:34;3.40;99.90
23629;DHT22;11991;57.150;-2.134;2022-12-10T12:30:06;3.30;99.90
23629;DHT22;11991;57.150;-2.134;2022-12-10T12:33:08;3.30;99.90
23629;DHT22;11991;57.150;-2.134;2022-12-10T12:46:14;3.00;99.90
23629;DHT22;11991;57.150;-2.134;2022-12-10T12:48:53;2.90;99.90
23629;DHT22;11991;57.150;-2.134;2022-12-10T12:51:33;2.80;99.90
23629;DHT22;11991;57.150;-2.134;2022-12-10T12:54:03;2.80;99.90
23629;DHT22;11991;57.150;-2.134;2022-12-10T13:02:44;2.70;99.90
23629;DHT22;11991;57.150;-2.134;2022-12-10T13:05:29;2.70;99.90
23629;DHT22;11991;57.150;-2.134;2022-12-10T13:10:48;2.70;99.90
23629;DHT22;11991;57.150;-2.134;2022-12-10T13:24:21;2.50;99.90
23629;DHT22;11991;57.150;-2.134;2022-12-10T13:40:26;2.10;99.90
23629;DHT22;11991;57.150;-2.134;2022-12-10T13:46:34;2.00;99.90
23629;DHT22;11991;57.150;-2.134;2022-12-10T13:49:19;2.00;99.90
23629;DHT22;11991;57.150;-2.134;2022-12-10T13:57:55;2.00;99.90
23629;DHT22;11991;57.150;-2.134;2022-12-10T14:00:17;2.00;99.90
23629;DHT22;11991;57.150;-2.134;2022-12-10T14:05:49;2.00;99.90
23629;DHT22;11991;57.150;-2.134;2022-12-10T14:08:25;2.00;99.90
23629;DHT22;11991;57.150;-2.134;2022-12-10T14:10:55;2.00;99.90
23629;DHT22;11991;57.150;-2.134;2022-12-10T14:13:31;1.90;99.90
23629;DHT22;11991;57.150;-2.134;2022-12-10T14:16:01;1.80;99.90
23629;DHT22;11991;57.150;-2.134;2022-12-10T14:18:29;1.80;99.90
23629;DHT22;11991;57.150;-2.134;2022-12-10T14:20:57;1.80;99.90
23629;DHT22;11991;57.150;-2.134;2022-12-10T14:23:31;1.80;99.90
23629;DHT22;11991;57.150;-2.134;2022-12-10T14:28:49;1.80;99.90
23629;DHT22;11991;57.150;-2.134;2022-12-10T14:31:20;1.80;99.90
23629;DHT22;11991;57.150;-2.134;2022-12-10T14:33:49;1.70;99.90
23629;DHT22;11991;57.150;-2.134;2022-12-10T14:36:45;1.70;99.90
23629;DHT22;11991;57.150;-2.134;2022-12-10T14:39:26;1.70;99.90
23629;DHT22;11991;57.150;-2.134;2022-12-10T14:42:05;1.70;99.90
23629;DHT22;11991;57.150;-2.134;2022-12-10T14:44:40;1.80;99.90
23629;DHT22;11991;57.150;-2.134;2022-12-10T14:47:27;1.80;99.90
23629;DHT22;11991;57.150;-2.134;2022-12-10T14:50:28;1.80;99.90
23629;DHT22;11991;57.150;-2.134;2022-12-10T14:53:29;1.90;99.90
23629;DHT22;11991;57.150;-2.134;2022-12-10T14:56:36;1.90;99.90
23629;DHT22;11991;57.150;-2.134;2022-12-10T14:59:43;2.00;99.90
23629;DHT22;11991;57.150;-2.134;2022-12-10T15:02:27;2.10;99.90
23629;DHT22;11991;57.150;-2.134;2022-12-10T15:05:01;2.10;99.90
23629;DHT22;11991;57.150;-2.134;2022-12-10T15:07:33;2.20;99.90
23629;DHT22;11991;57.150;-2.134;2022-12-10T15:10:12;2.20;99.90
23629;DHT22;11991;57.150;-2.134;2022-12-10T15:12:47;2.30;99.90
23629;DHT22;11991;57.150;-2.134;2022-12-10T15:15:35;2.30;99.90
23629;DHT22;11991;57.150;-2.134;2022-12-10T15:20:37;2.40;99.90
23629;DHT22;11991;57.150;-2.134;2022-12-10T15:26:15;2.40;99.90
23629;DHT22;11991;57.150;-2.134;2022-12-10T15:28:44;2.50;99.90
23629;DHT22;11991;57.150;-2.134;2022-12-10T15:33:54;2.70;99.90
23629;DHT22;11991;57.150;-2.134;2022-12-10T15:36:35;2.70;99.90
23629;DHT22;11991;57.150;-2.134;2022-12-10T15:49:26;3.00;99.90
23629;DHT22;11991;57.150;-2.134;2022-12-10T15:51:54;3.00;99.90
23629;DHT22;11991;57.150;-2.134;2022-12-10T15:54:36;3.00;99.90
23629;DHT22;11991;57.150;-2.134;2022-12-10T15:57:18;3.00;99.90
23629;DHT22;11991;57.150;-2.134;2022-12-10T15:59:48;3.00;99.90
23629;DHT22;11991;57.150;-2.134;2022-12-10T16:04:45;3.00;99.90
23629;DHT22;11991;57.150;-2.134;2022-12-10T16:07:13;3.00;99.90
23629;DHT22;11991;57.150;-2.134;2022-12-10T16:09:43;2.80;99.90
23629;DHT22;11991;57.150;-2.134;2022-12-10T16:12:15;2.70;99.90
23629;DHT22;11991;57.150;-2.134;2022-12-10T16:14:48;2.60;99.90
23629;DHT22;11991;57.150;-2.134;2022-12-10T16:17:16;2.60;99.90
23629;DHT22;11991;57.150;-2.134;2022-12-10T16:19:43;2.60;99.90
23629;DHT22;11991;57.150;-2.134;2022-12-10T16:22:11;2.60;99.90
23629;DHT22;11991;57.150;-2.134;2022-12-10T16:24:38;2.60;99.90
23629;DHT22;11991;57.150;-2.134;2022-12-10T16:27:13;2.60;99.90
23629;DHT22;11991;57.150;-2.134;2022-12-10T16:29:42;2.60;99.90
23629;DHT22;11991;57.150;-2.134;2022-12-10T16:32:10;2.70;99.90
23629;DHT22;11991;57.150;-2.134;2022-12-10T16:34:39;2.80;99.90
23629;DHT22;11991;57.150;-2.134;2022-12-10T16:37:06;2.90;99.90
23629;DHT22;11991;57.150;-2.134;2022-12-10T16:39:33;3.00;99.90
23629;DHT22;11991;57.150;-2.134;2022-12-10T16:42:01;3.00;99.90
23629;DHT22;11991;57.150;-2.134;2022-12-10T16:44:28;3.10;99.90
23629;DHT22;11991;57.150;-2.134;2022-12-10T16:46:56;3.10;99.90
23629;DHT22;11991;57.150;-2.134;2022-12-10T16:49:24;3.20;99.90
23629;DHT22;11991;57.150;-2.134;2022-12-10T16:51:52;3.20;99.90
23629;DHT22;11991;57.150;-2.134;2022-12-10T16:54:19;3.20;99.90
23629;DHT22;11991;57.150;-2.134;2022-12-10T16:56:46;3.20;99.90
23629;DHT22;11991;57.150;-2.134;2022-12-10T16:59:14;3.20;99.90
23629;DHT22;11991;57.150;-2.134;2022-12-10T17:01:41;3.30;99.90
23629;DHT22;11991;57.150;-2.134;2022-12-10T17:04:09;3.30;99.90
23629;DHT22;11991;57.150;-2.134;2022-12-10T17:06:36;3.30;99.90
23629;DHT22;11991;57.150;-2.134;2022-12-10T17:09:04;3.30;99.90
23629;DHT22;11991;57.150;-2.134;2022-12-10T17:11:39;3.40;99.90
23629;DHT22;11991;57.150;-2.134;2022-12-10T17:14:28;3.40;99.90
23629;DHT22;11991;57.150;-2.134;2022-12-10T17:16:58;3.40;99.90
23629;DHT22;11991;57.150;-2.134;2022-12-10T17:19:44;3.30;99.90
23629;DHT22;11991;57.150;-2.134;2022-12-10T17:22:11;3.30;99.90
23629;DHT22;11991;57.150;-2.134;2022-12-10T17:24:39;3.20;99.90
23629;DHT22;11991;57.150;-2.134;2022-12-10T17:27:14;3.20;99.90
23629;DHT22;11991;57.150;-2.134;2022-12-10T17:29:43;3.20;99.90
23629;DHT22;11991;57.150;-2.134;2022-12-10T17:32:21;3.20;99.90
23629;DHT22;11991;57.150;-2.134;2022-12-10T17:34:48;3.20;99.90
23629;DHT22;11991;57.150;-2.134;2022-12-10T17:37:18;3.20;99.90
23629;DHT22;11991;57.150;-2.134;2022-12-10T17:39:46;3.20;99.90
23629;DHT22;11991;57.150;-2.134;2022-12-10T17:42:13;3.20;99.90
23629;DHT22;11991;57.150;-2.134;2022-12-10T17:44:41;3.30;99.90
23629;DHT22;11991;57.150;-2.134;2022-12-10T17:47:23;3.20;99.90
23629;DHT22;11991;57.150;-2.134;2022-12-10T17:49:51;3.20;99.90
23629;DHT22;11991;57.150;-2.134;2022-12-10T17:52:19;3.20;99.90
23629;DHT22;11991;57.150;-2.134;2022-12-10T17:54:46;3.30;99.90
23629;DHT22;11991;57.150;-2.134;2022-12-10T17:57:23;3.20;99.90
23629;DHT22;11991;57.150;-2.134;2022-12-10T17:59:52;3.20;99.90
23629;DHT22;11991;57.150;-2.134;2022-12-10T18:02:20;3.10;99.90
23629;DHT22;11991;57.150;-2.134;2022-12-10T18:04:47;3.10;99.90
23629;DHT22;11991;57.150;-2.134;2022-12-10T18:18:34;2.80;99.90
23629;DHT22;11991;57.150;-2.134;2022-12-10T18:21:02;2.70;99.90
23629;DHT22;11991;57.150;-2.134;2022-12-10T18:23:34;2.70;99.90
23629;DHT22;11991;57.150;-2.134;2022-12-10T18:26:01;2.60;99.90
23629;DHT22;11991;57.150;-2.134;2022-12-10T18:31:14;2.40;99.90